sensor_id;sensor_type;location;lat;lon;timestamp;pressure;altitude;pressure_sealevel;temperature;humidity
11395;BME280;5753;54.402;10.220;2022-10-26T00:01:13;101622.59;;;22.12;50.37
11395;BME280;5753;54.402;10.220;2022-10-26T00:03:41;101630.03;;;21.88;50.50
11395;BME280;5753;54.402;10.220;2022-10-26T00:06:13;101618.81;;;22.68;48.77
11395;BME280;5753;54.402;10.220;2022-10-26T00:08:40;101627.97;;;21.55;51.13
11395;BME280;5753;54.402;10.220;2022-10-26T00:11:06;101626.53;;;21.88;50.64
11395;BME280;5753;54.402;10.220;2022-10-26T00:13:33;101626.72;;;21.76;50.98
11395;BME280;5753;54.402;10.220;2022-10-26T00:16:00;101624.53;;;22.47;48.71
11395;BME280;5753;54.402;10.220;2022-10-26T00:18:27;101627.91;;;22.52;48.55
11395;BME280;5753;54.402;10.220;2022-10-26T00:20:53;101624.53;;;22.00;49.84
11395;BME280;5753;54.402;10.220;2022-10-26T00:23:19;101621.69;;;22.13;49.40
11395;BME280;5753;54.402;10.220;2022-10-26T00:25:53;101622.00;;;22.84;47.35
11395;BME280;5753;54.402;10.220;2022-10-26T00:28:20;101625.50;;;22.43;48.07
11395;BME280;5753;54.402;10.220;2022-10-26T00:30:46;101626.69;;;22.28;48.34
11395;BME280;5753;54.402;10.220;2022-10-26T00:33:12;101628.53;;;21.72;49.36
11395;BME280;5753;54.402;10.220;2022-10-26T00:35:39;101629.53;;;21.66;50.06
11395;BME280;5753;54.402;10.220;2022-10-26T00:38:06;101627.66;;;21.73;49.76
11395;BME280;5753;54.402;10.220;2022-10-26T00:40:32;101630.53;;;21.58;50.06
11395;BME280;5753;54.402;10.220;2022-10-26T00:42:58;101623.75;;;22.42;47.89
11395;BME280;5753;54.402;10.220;2022-10-26T00:45:28;101632.75;;;21.28;51.48
11395;BME280;5753;54.402;10.220;2022-10-26T00:48:06;101633.34;;;21.49;50.27
11395;BME280;5753;54.402;10.220;2022-10-26T00:50:41;101639.31;;;21.57;50.32
11395;BME280;5753;54.402;10.220;2022-10-26T00:53:10;101630.16;;;20.65;52.03
11395;BME280;5753;54.402;10.220;2022-10-26T00:55:44;101636.38;;;21.18;51.50
11395;BME280;5753;54.402;10.220;2022-10-26T00:58:10;101633.44;;;21.43;50.61
11395;BME280;5753;54.402;10.220;2022-10-26T01:00:37;101635.00;;;20.96;50.93
11395;BME280;5753;54.402;10.220;2022-10-26T01:03:06;101628.41;;;21.29;50.79
11395;BME280;5753;54.402;10.220;2022-10-26T01:05:35;101635.53;;;21.73;49.04
11395;BME280;5753;54.402;10.220;2022-10-26T01:08:03;101631.03;;;21.27;50.68
11395;BME280;5753;54.402;10.220;2022-10-26T01:10:29;101639.25;;;21.60;49.74
11395;BME280;5753;54.402;10.220;2022-10-26T01:12:56;101642.16;;;21.45;49.84
11395;BME280;5753;54.402;10.220;2022-10-26T01:18:46;101640.16;;;22.08;48.63
11395;BME280;5753;54.402;10.220;2022-10-26T01:35:58;101617.50;;;22.03;48.51
11395;BME280;5753;54.402;10.220;2022-10-26T01:41:57;101623.06;;;21.35;50.11
11395;BME280;5753;54.402;10.220;2022-10-26T01:44:47;101617.56;;;21.99;48.48
11395;BME280;5753;54.402;10.220;2022-10-26T01:47:16;101624.25;;;22.16;47.62
11395;BME280;5753;54.402;10.220;2022-10-26T01:49:48;101626.19;;;21.57;48.81
11395;BME280;5753;54.402;10.220;2022-10-26T01:52:18;101630.53;;;21.58;49.15
11395;BME280;5753;54.402;10.220;2022-10-26T01:54:44;101630.31;;;21.70;48.80
11395;BME280;5753;54.402;10.220;2022-10-26T01:57:13;101629.19;;;21.86;48.16
11395;BME280;5753;54.402;10.220;2022-10-26T02:03:13;101626.50;;;21.39;49.20
11395;BME280;5753;54.402;10.220;2022-10-26T02:11:23;101632.13;;;21.68;48.02
11395;BME280;5753;54.402;10.220;2022-10-26T02:22:29;101621.94;;;22.45;45.76
11395;BME280;5753;54.402;10.220;2022-10-26T02:25:00;101615.06;;;21.93;47.13
11395;BME280;5753;54.402;10.220;2022-10-26T02:27:33;101607.66;;;22.15;46.21
11395;BME280;5753;54.402;10.220;2022-10-26T02:30:02;101616.00;;;21.89;46.60
11395;BME280;5753;54.402;10.220;2022-10-26T02:32:33;101623.25;;;21.77;46.89
11395;BME280;5753;54.402;10.220;2022-10-26T02:35:02;101618.97;;;21.69;47.28
11395;BME280;5753;54.402;10.220;2022-10-26T02:37:32;101605.63;;;21.32;48.10
11395;BME280;5753;54.402;10.220;2022-10-26T02:40:02;101607.31;;;21.86;46.46
11395;BME280;5753;54.402;10.220;2022-10-26T02:42:30;101605.13;;;21.06;48.86
11395;BME280;5753;54.402;10.220;2022-10-26T02:45:03;101602.31;;;21.71;47.20
11395;BME280;5753;54.402;10.220;2022-10-26T02:47:32;101607.34;;;21.35;47.97
11395;BME280;5753;54.402;10.220;2022-10-26T02:49:58;101600.91;;;21.53;47.60
11395;BME280;5753;54.402;10.220;2022-10-26T02:53:16;101604.59;;;21.43;48.26
11395;BME280;5753;54.402;10.220;2022-10-26T02:55:28;101603.88;;;21.82;46.72
11395;BME280;5753;54.402;10.220;2022-10-26T02:57:59;101604.34;;;21.56;47.43
11395;BME280;5753;54.402;10.220;2022-10-26T03:00:26;101604.59;;;21.90;46.35
11395;BME280;5753;54.402;10.220;2022-10-26T03:02:56;101605.50;;;20.82;49.48
11395;BME280;5753;54.402;10.220;2022-10-26T03:05:25;101599.75;;;21.15;48.36
11395;BME280;5753;54.402;10.220;2022-10-26T03:07:53;101603.06;;;21.29;48.25
11395;BME280;5753;54.402;10.220;2022-10-26T03:10:19;101602.94;;;21.86;46.48
11395;BME280;5753;54.402;10.220;2022-10-26T03:12:46;101594.81;;;21.98;45.69
11395;BME280;5753;54.402;10.220;2022-10-26T03:15:13;101595.69;;;21.51;47.06
11395;BME280;5753;54.402;10.220;2022-10-26T03:17:39;101592.09;;;22.05;45.32
11395;BME280;5753;54.402;10.220;2022-10-26T03:20:05;101588.84;;;21.90;45.65
11395;BME280;5753;54.402;10.220;2022-10-26T03:22:31;101586.66;;;21.66;45.83
11395;BME280;5753;54.402;10.220;2022-10-26T03:24:57;101589.88;;;21.83;45.53
11395;BME280;5753;54.402;10.220;2022-10-26T03:27:24;101591.06;;;21.65;46.06
11395;BME280;5753;54.402;10.220;2022-10-26T03:29:52;101597.00;;;21.75;45.88
11395;BME280;5753;54.402;10.220;2022-10-26T03:32:18;101592.41;;;21.39;46.76
11395;BME280;5753;54.402;10.220;2022-10-26T03:34:44;101593.25;;;20.84;47.93
11395;BME280;5753;54.402;10.220;2022-10-26T03:37:12;101591.31;;;20.95;47.58
11395;BME280;5753;54.402;10.220;2022-10-26T03:39:38;101591.00;;;19.76;51.40
11395;BME280;5753;54.402;10.220;2022-10-26T03:42:04;101594.22;;;20.75;48.78
11395;BME280;5753;54.402;10.220;2022-10-26T03:44:30;101596.25;;;19.75;50.98
11395;BME280;5753;54.402;10.220;2022-10-26T03:46:56;101602.81;;;20.86;48.89
11395;BME280;5753;54.402;10.220;2022-10-26T03:49:22;101597.13;;;20.55;49.42
11395;BME280;5753;54.402;10.220;2022-10-26T03:51:48;101601.94;;;20.15;50.45
11395;BME280;5753;54.402;10.220;2022-10-26T03:54:14;101598.97;;;20.47;50.11
11395;BME280;5753;54.402;10.220;2022-10-26T03:56:41;101599.78;;;20.51;49.82
11395;BME280;5753;54.402;10.220;2022-10-26T03:59:07;101595.13;;;20.00;51.49
11395;BME280;5753;54.402;10.220;2022-10-26T04:01:33;101594.06;;;20.17;51.17
11395;BME280;5753;54.402;10.220;2022-10-26T04:03:59;101599.19;;;20.26;51.01
11395;BME280;5753;54.402;10.220;2022-10-26T04:06:25;101592.94;;;19.58;52.82
11395;BME280;5753;54.402;10.220;2022-10-26T04:08:51;101596.38;;;19.63;52.79
11395;BME280;5753;54.402;10.220;2022-10-26T04:11:22;101602.09;;;20.73;49.97
11395;BME280;5753;54.402;10.220;2022-10-26T04:13:49;101603.06;;;21.29;48.05
11395;BME280;5753;54.402;10.220;2022-10-26T04:16:15;101611.56;;;20.11;51.51
11395;BME280;5753;54.402;10.220;2022-10-26T04:18:41;101602.50;;;19.62;52.38
11395;BME280;5753;54.402;10.220;2022-10-26T04:21:07;101601.78;;;19.35;54.15
11395;BME280;5753;54.402;10.220;2022-10-26T04:23:33;101594.22;;;19.03;55.45
11395;BME280;5753;54.402;10.220;2022-10-26T04:25:59;101605.09;;;20.46;51.27
11395;BME280;5753;54.402;10.220;2022-10-26T04:28:25;101604.09;;;19.76;52.88
11395;BME280;5753;54.402;10.220;2022-10-26T04:30:51;101607.28;;;20.77;50.00
11395;BME280;5753;54.402;10.220;2022-10-26T04:33:17;101605.09;;;19.62;53.07
11395;BME280;5753;54.402;10.220;2022-10-26T04:35:43;101608.09;;;20.80;49.71
11395;BME280;5753;54.402;10.220;2022-10-26T04:38:10;101612.81;;;19.75;52.47
11395;BME280;5753;54.402;10.220;2022-10-26T04:40:36;101608.47;;;19.74;53.30
11395;BME280;5753;54.402;10.220;2022-10-26T04:43:02;101621.28;;;20.75;50.16
11395;BME280;5753;54.402;10.220;2022-10-26T04:45:29;101624.66;;;20.11;52.06
11395;BME280;5753;54.402;10.220;2022-10-26T04:50:25;101618.81;;;19.88;52.68
11395;BME280;5753;54.402;10.220;2022-10-26T04:52:52;101628.34;;;18.71;57.31
11395;BME280;5753;54.402;10.220;2022-10-26T04:55:18;101618.44;;;19.25;54.65
11395;BME280;5753;54.402;10.220;2022-10-26T04:57:47;101622.03;;;20.11;52.05
11395;BME280;5753;54.402;10.220;2022-10-26T05:00:13;101625.25;;;20.41;51.10
11395;BME280;5753;54.402;10.220;2022-10-26T05:02:39;101625.09;;;19.67;53.49
11395;BME280;5753;54.402;10.220;2022-10-26T05:05:05;101623.53;;;20.32;50.77
11395;BME280;5753;54.402;10.220;2022-10-26T05:07:32;101628.25;;;20.03;51.57
11395;BME280;5753;54.402;10.220;2022-10-26T05:09:58;101635.94;;;19.14;54.76
11395;BME280;5753;54.402;10.220;2022-10-26T05:12:24;101626.66;;;19.88;52.55
11395;BME280;5753;54.402;10.220;2022-10-26T05:14:50;101627.75;;;19.63;53.02
11395;BME280;5753;54.402;10.220;2022-10-26T05:17:16;101618.28;;;20.40;50.45
11395;BME280;5753;54.402;10.220;2022-10-26T05:19:42;101620.16;;;20.23;50.99
11395;BME280;5753;54.402;10.220;2022-10-26T05:22:08;101632.22;;;19.50;53.02
11395;BME280;5753;54.402;10.220;2022-10-26T05:24:35;101617.16;;;19.78;51.65
11395;BME280;5753;54.402;10.220;2022-10-26T05:27:01;101625.38;;;20.26;50.51
11395;BME280;5753;54.402;10.220;2022-10-26T05:29:27;101621.03;;;19.28;52.63
11395;BME280;5753;54.402;10.220;2022-10-26T05:31:53;101621.22;;;20.08;50.59
11395;BME280;5753;54.402;10.220;2022-10-26T05:34:19;101613.38;;;20.08;51.07
11395;BME280;5753;54.402;10.220;2022-10-26T05:36:45;101619.06;;;20.47;49.53
11395;BME280;5753;54.402;10.220;2022-10-26T05:39:11;101626.66;;;19.90;50.92
11395;BME280;5753;54.402;10.220;2022-10-26T05:41:37;101626.38;;;19.11;53.18
11395;BME280;5753;54.402;10.220;2022-10-26T05:44:03;101625.69;;;19.98;50.88
11395;BME280;5753;54.402;10.220;2022-10-26T05:46:29;101628.72;;;19.53;51.70
11395;BME280;5753;54.402;10.220;2022-10-26T05:48:55;101622.41;;;19.75;51.54
11395;BME280;5753;54.402;10.220;2022-10-26T05:51:21;101630.69;;;20.20;50.08
11395;BME280;5753;54.402;10.220;2022-10-26T05:53:49;101625.84;;;19.80;51.13
11395;BME280;5753;54.402;10.220;2022-10-26T05:56:29;101620.94;;;19.43;52.64
11395;BME280;5753;54.402;10.220;2022-10-26T05:58:58;101634.66;;;20.56;49.49
11395;BME280;5753;54.402;10.220;2022-10-26T06:06:40;101646.28;;;20.29;50.01
11395;BME280;5753;54.402;10.220;2022-10-26T06:09:15;101652.16;;;20.52;49.48
11395;BME280;5753;54.402;10.220;2022-10-26T06:11:41;101651.34;;;20.49;49.79
11395;BME280;5753;54.402;10.220;2022-10-26T06:14:08;101651.03;;;19.93;51.40
11395;BME280;5753;54.402;10.220;2022-10-26T06:19:13;101647.22;;;20.97;48.67
11395;BME280;5753;54.402;10.220;2022-10-26T06:22:00;101654.03;;;21.07;48.46
11395;BME280;5753;54.402;10.220;2022-10-26T06:30:15;101655.81;;;20.36;50.27
11395;BME280;5753;54.402;10.220;2022-10-26T06:32:45;101650.44;;;19.61;52.12
11395;BME280;5753;54.402;10.220;2022-10-26T06:35:24;101658.69;;;20.11;51.07
11395;BME280;5753;54.402;10.220;2022-10-26T06:37:54;101653.59;;;20.74;48.87
11395;BME280;5753;54.402;10.220;2022-10-26T06:40:22;101654.13;;;21.01;48.01
11395;BME280;5753;54.402;10.220;2022-10-26T06:42:49;101655.34;;;21.39;46.75
11395;BME280;5753;54.402;10.220;2022-10-26T06:45:16;101666.19;;;20.47;48.62
11395;BME280;5753;54.402;10.220;2022-10-26T06:48:06;101663.44;;;21.22;47.09
11395;BME280;5753;54.402;10.220;2022-10-26T06:50:49;101662.50;;;21.30;46.65
11395;BME280;5753;54.402;10.220;2022-10-26T06:53:37;101657.03;;;21.43;46.18
11395;BME280;5753;54.402;10.220;2022-10-26T06:56:06;101667.25;;;21.01;47.06
11395;BME280;5753;54.402;10.220;2022-10-26T06:58:36;101661.06;;;21.05;46.90
11395;BME280;5753;54.402;10.220;2022-10-26T07:01:03;101679.00;;;21.35;46.36
11395;BME280;5753;54.402;10.220;2022-10-26T07:03:29;101673.47;;;21.54;45.76
11395;BME280;5753;54.402;10.220;2022-10-26T07:05:55;101666.75;;;21.38;46.07
11395;BME280;5753;54.402;10.220;2022-10-26T07:08:21;101671.63;;;20.99;47.08
11395;BME280;5753;54.402;10.220;2022-10-26T07:10:47;101671.31;;;21.20;46.53
11395;BME280;5753;54.402;10.220;2022-10-26T07:13:13;101676.47;;;21.31;46.50
11395;BME280;5753;54.402;10.220;2022-10-26T07:15:40;101671.31;;;21.20;46.48
11395;BME280;5753;54.402;10.220;2022-10-26T07:18:08;101683.44;;;21.32;46.24
11395;BME280;5753;54.402;10.220;2022-10-26T07:20:38;101672.81;;;21.40;46.09
11395;BME280;5753;54.402;10.220;2022-10-26T07:23:05;101666.63;;;21.45;46.22
11395;BME280;5753;54.402;10.220;2022-10-26T07:25:33;101677.41;;;21.24;47.03
11395;BME280;5753;54.402;10.220;2022-10-26T07:27:59;101677.16;;;21.42;46.74
11395;BME280;5753;54.402;10.220;2022-10-26T07:30:27;101677.78;;;20.98;47.67
11395;BME280;5753;54.402;10.220;2022-10-26T07:33:20;101683.63;;;21.15;47.74
11395;BME280;5753;54.402;10.220;2022-10-26T07:36:07;101687.88;;;21.25;47.53
11395;BME280;5753;54.402;10.220;2022-10-26T07:38:36;101684.38;;;20.60;49.31
11395;BME280;5753;54.402;10.220;2022-10-26T07:41:03;101685.91;;;20.77;49.36
11395;BME280;5753;54.402;10.220;2022-10-26T07:43:29;101681.03;;;21.14;48.98
11395;BME280;5753;54.402;10.220;2022-10-26T07:45:55;101686.16;;;21.23;48.77
11395;BME280;5753;54.402;10.220;2022-10-26T07:48:22;101687.00;;;21.26;48.31
11395;BME280;5753;54.402;10.220;2022-10-26T07:50:48;101682.75;;;21.15;48.84
11395;BME280;5753;54.402;10.220;2022-10-26T07:53:14;101684.56;;;21.69;47.72
11395;BME280;5753;54.402;10.220;2022-10-26T07:55:40;101680.63;;;21.44;48.55
11395;BME280;5753;54.402;10.220;2022-10-26T07:58:06;101689.97;;;21.00;49.71
11395;BME280;5753;54.402;10.220;2022-10-26T08:00:32;101693.41;;;21.64;48.65
11395;BME280;5753;54.402;10.220;2022-10-26T08:02:58;101700.03;;;21.32;48.84
11395;BME280;5753;54.402;10.220;2022-10-26T08:05:24;101702.13;;;21.66;48.38
11395;BME280;5753;54.402;10.220;2022-10-26T08:07:50;101701.19;;;21.10;49.79
11395;BME280;5753;54.402;10.220;2022-10-26T08:10:17;101702.47;;;20.79;50.80
11395;BME280;5753;54.402;10.220;2022-10-26T08:12:43;101702.75;;;21.25;49.92
11395;BME280;5753;54.402;10.220;2022-10-26T08:15:10;101702.38;;;21.51;49.30
11395;BME280;5753;54.402;10.220;2022-10-26T08:17:36;101704.06;;;21.55;48.89
11395;BME280;5753;54.402;10.220;2022-10-26T08:20:02;101698.53;;;21.72;48.94
11395;BME280;5753;54.402;10.220;2022-10-26T08:22:29;101706.28;;;21.81;49.35
11395;BME280;5753;54.402;10.220;2022-10-26T08:24:55;101704.09;;;20.89;50.85
11395;BME280;5753;54.402;10.220;2022-10-26T08:27:21;101706.69;;;22.09;48.64
11395;BME280;5753;54.402;10.220;2022-10-26T08:29:48;101701.63;;;21.43;50.17
11395;BME280;5753;54.402;10.220;2022-10-26T08:32:14;101703.50;;;21.88;49.95
11395;BME280;5753;54.402;10.220;2022-10-26T08:34:40;101701.69;;;21.93;49.71
11395;BME280;5753;54.402;10.220;2022-10-26T08:37:06;101695.66;;;22.82;47.35
11395;BME280;5753;54.402;10.220;2022-10-26T08:39:32;101699.19;;;22.35;49.38
11395;BME280;5753;54.402;10.220;2022-10-26T08:42:46;101696.13;;;22.12;49.37
11395;BME280;5753;54.402;10.220;2022-10-26T08:44:57;101696.41;;;21.95;49.67
11395;BME280;5753;54.402;10.220;2022-10-26T08:47:39;101683.97;;;22.52;48.54
11395;BME280;5753;54.402;10.220;2022-10-26T08:52:57;101686.59;;;22.52;49.03
11395;BME280;5753;54.402;10.220;2022-10-26T08:55:38;101692.59;;;23.02;47.92
11395;BME280;5753;54.402;10.220;2022-10-26T08:58:10;101690.09;;;23.35;47.51
11395;BME280;5753;54.402;10.220;2022-10-26T09:00:40;101690.25;;;22.88;48.85
11395;BME280;5753;54.402;10.220;2022-10-26T09:03:13;101686.47;;;20.25;54.42
11395;BME280;5753;54.402;10.220;2022-10-26T09:08:36;101687.13;;;23.11;48.04
11395;BME280;5753;54.402;10.220;2022-10-26T09:19:19;101681.00;;;23.48;47.40
11395;BME280;5753;54.402;10.220;2022-10-26T09:22:49;101691.59;;;23.45;47.53
11395;BME280;5753;54.402;10.220;2022-10-26T09:24:57;101684.38;;;23.90;46.50
11395;BME280;5753;54.402;10.220;2022-10-26T09:27:31;101675.41;;;24.31;46.47
11395;BME280;5753;54.402;10.220;2022-10-26T09:30:05;101673.53;;;24.01;46.94
11395;BME280;5753;54.402;10.220;2022-10-26T09:32:44;101681.28;;;24.07;46.26
11395;BME280;5753;54.402;10.220;2022-10-26T09:35:50;101673.66;;;23.62;47.83
11395;BME280;5753;54.402;10.220;2022-10-26T09:41:02;101682.22;;;24.38;44.91
11395;BME280;5753;54.402;10.220;2022-10-26T09:46:31;101671.22;;;25.14;43.66
11395;BME280;5753;54.402;10.220;2022-10-26T09:49:07;101666.22;;;24.12;45.29
11395;BME280;5753;54.402;10.220;2022-10-26T09:51:37;101669.53;;;23.50;46.32
11395;BME280;5753;54.402;10.220;2022-10-26T09:54:15;101670.31;;;24.55;44.60
11395;BME280;5753;54.402;10.220;2022-10-26T09:56:52;101666.31;;;25.30;43.47
11395;BME280;5753;54.402;10.220;2022-10-26T09:59:21;101673.50;;;25.79;42.69
11395;BME280;5753;54.402;10.220;2022-10-26T10:01:49;101672.00;;;25.97;42.75
11395;BME280;5753;54.402;10.220;2022-10-26T10:04:16;101684.03;;;26.30;42.15
11395;BME280;5753;54.402;10.220;2022-10-26T10:06:51;101677.63;;;27.08;41.78
11395;BME280;5753;54.402;10.220;2022-10-26T10:09:21;101669.22;;;26.98;41.64
11395;BME280;5753;54.402;10.220;2022-10-26T10:11:51;101678.91;;;26.97;41.67
11395;BME280;5753;54.402;10.220;2022-10-26T10:17:00;101672.91;;;24.56;44.68
11395;BME280;5753;54.402;10.220;2022-10-26T10:19:34;101676.09;;;26.30;41.93
11395;BME280;5753;54.402;10.220;2022-10-26T10:24:52;101681.75;;;27.37;40.43
11395;BME280;5753;54.402;10.220;2022-10-26T10:27:18;101682.34;;;28.28;39.28
11395;BME280;5753;54.402;10.220;2022-10-26T10:29:51;101668.63;;;27.55;40.34
11395;BME280;5753;54.402;10.220;2022-10-26T10:32:20;101672.56;;;28.88;38.61
11395;BME280;5753;54.402;10.220;2022-10-26T10:34:51;101669.19;;;28.45;38.75
11395;BME280;5753;54.402;10.220;2022-10-26T10:42:26;101670.13;;;27.19;40.02
11395;BME280;5753;54.402;10.220;2022-10-26T10:44:55;101663.59;;;27.49;39.41
11395;BME280;5753;54.402;10.220;2022-10-26T10:47:34;101674.53;;;26.96;40.17
11395;BME280;5753;54.402;10.220;2022-10-26T10:50:17;101672.38;;;28.53;38.49
11395;BME280;5753;54.402;10.220;2022-10-26T10:52:45;101673.38;;;28.10;38.39
11395;BME280;5753;54.402;10.220;2022-10-26T10:55:18;101669.25;;;29.01;36.37
11395;BME280;5753;54.402;10.220;2022-10-26T11:00:11;101666.44;;;27.45;38.95
11395;BME280;5753;54.402;10.220;2022-10-26T11:05:59;101677.63;;;28.34;36.31
11395;BME280;5753;54.402;10.220;2022-10-26T11:08:47;101675.72;;;27.33;38.48
11395;BME280;5753;54.402;10.220;2022-10-26T11:16:38;101677.81;;;29.44;35.36
11395;BME280;5753;54.402;10.220;2022-10-26T11:19:28;101679.13;;;30.22;34.13
11395;BME280;5753;54.402;10.220;2022-10-26T11:21:56;101691.75;;;29.84;34.29
11395;BME280;5753;54.402;10.220;2022-10-26T11:24:30;101686.47;;;29.48;35.06
11395;BME280;5753;54.402;10.220;2022-10-26T11:30:02;101688.53;;;29.94;34.36
11395;BME280;5753;54.402;10.220;2022-10-26T11:32:41;101685.72;;;29.08;35.67
11395;BME280;5753;54.402;10.220;2022-10-26T11:35:13;101684.94;;;30.30;34.47
11395;BME280;5753;54.402;10.220;2022-10-26T11:38:04;101681.97;;;29.84;34.68
11395;BME280;5753;54.402;10.220;2022-10-26T11:44:10;101689.28;;;28.69;36.84
11395;BME280;5753;54.402;10.220;2022-10-26T11:49:15;101683.47;;;29.18;34.57
11395;BME280;5753;54.402;10.220;2022-10-26T11:52:04;101683.19;;;29.77;34.08
11395;BME280;5753;54.402;10.220;2022-10-26T11:54:54;101679.47;;;29.98;33.92
11395;BME280;5753;54.402;10.220;2022-10-26T11:57:22;101674.53;;;30.08;33.55
11395;BME280;5753;54.402;10.220;2022-10-26T11:59:59;101674.56;;;28.43;36.11
11395;BME280;5753;54.402;10.220;2022-10-26T12:02:26;101670.94;;;27.65;36.79
11395;BME280;5753;54.402;10.220;2022-10-26T12:05:07;101673.53;;;29.04;35.19
11395;BME280;5753;54.402;10.220;2022-10-26T12:07:48;101672.66;;;30.60;33.38
11395;BME280;5753;54.402;10.220;2022-10-26T12:10:36;101661.94;;;30.29;33.15
11395;BME280;5753;54.402;10.220;2022-10-26T12:13:23;101655.59;;;30.47;33.05
11395;BME280;5753;54.402;10.220;2022-10-26T12:16:05;101658.81;;;31.78;31.73
11395;BME280;5753;54.402;10.220;2022-10-26T12:18:43;101661.47;;;32.37;29.81
11395;BME280;5753;54.402;10.220;2022-10-26T12:21:12;101661.44;;;30.54;32.34
11395;BME280;5753;54.402;10.220;2022-10-26T12:24:00;101663.31;;;32.06;31.44
11395;BME280;5753;54.402;10.220;2022-10-26T12:33:58;101657.63;;;33.77;28.75
11395;BME280;5753;54.402;10.220;2022-10-26T12:39:34;101663.66;;;33.14;29.26
11395;BME280;5753;54.402;10.220;2022-10-26T12:50:01;101663.69;;;34.19;27.96
11395;BME280;5753;54.402;10.220;2022-10-26T12:52:53;101666.44;;;33.12;28.54
11395;BME280;5753;54.402;10.220;2022-10-26T13:08:57;101675.50;;;30.89;32.80
11395;BME280;5753;54.402;10.220;2022-10-26T13:11:35;101681.00;;;30.86;32.83
11395;BME280;5753;54.402;10.220;2022-10-26T13:14:05;101673.16;;;31.14;33.00
11395;BME280;5753;54.402;10.220;2022-10-26T13:16:33;101675.25;;;30.78;32.83
11395;BME280;5753;54.402;10.220;2022-10-26T13:19:00;101677.38;;;29.34;35.15
11395;BME280;5753;54.402;10.220;2022-10-26T13:21:27;101662.88;;;31.08;32.55
11395;BME280;5753;54.402;10.220;2022-10-26T13:26:22;101662.81;;;30.45;32.95
11395;BME280;5753;54.402;10.220;2022-10-26T13:28:57;101670.78;;;30.12;33.43
11395;BME280;5753;54.402;10.220;2022-10-26T13:39:21;101672.50;;;28.50;36.96
11395;BME280;5753;54.402;10.220;2022-10-26T13:41:51;101678.09;;;29.19;35.57
11395;BME280;5753;54.402;10.220;2022-10-26T13:47:05;101673.50;;;28.47;36.81
11395;BME280;5753;54.402;10.220;2022-10-26T13:49:46;101665.38;;;28.11;37.58
11395;BME280;5753;54.402;10.220;2022-10-26T13:52:49;101666.28;;;27.70;38.19
11395;BME280;5753;54.402;10.220;2022-10-26T13:55:26;101660.19;;;27.68;38.61
11395;BME280;5753;54.402;10.220;2022-10-26T13:58:32;101651.53;;;29.38;35.75
11395;BME280;5753;54.402;10.220;2022-10-26T14:01:09;101661.78;;;29.27;35.85
11395;BME280;5753;54.402;10.220;2022-10-26T14:03:37;101654.75;;;29.62;35.37
11395;BME280;5753;54.402;10.220;2022-10-26T14:08:54;101663.03;;;31.05;32.71
11395;BME280;5753;54.402;10.220;2022-10-26T14:11:46;101664.34;;;31.75;32.36
11395;BME280;5753;54.402;10.220;2022-10-26T14:14:23;101666.34;;;32.30;31.07
11395;BME280;5753;54.402;10.220;2022-10-26T14:16:51;101663.28;;;32.36;31.17
11395;BME280;5753;54.402;10.220;2022-10-26T14:19:27;101654.97;;;30.91;33.19
11395;BME280;5753;54.402;10.220;2022-10-26T14:21:54;101664.63;;;32.43;30.66
11395;BME280;5753;54.402;10.220;2022-10-26T14:26:53;101676.06;;;32.45;30.56
11395;BME280;5753;54.402;10.220;2022-10-26T14:29:23;101673.25;;;33.31;29.69
11395;BME280;5753;54.402;10.220;2022-10-26T14:31:49;101658.84;;;31.01;32.64
11395;BME280;5753;54.402;10.220;2022-10-26T14:34:17;101650.88;;;31.47;31.98
11395;BME280;5753;54.402;10.220;2022-10-26T14:36:53;101650.66;;;30.73;32.73
11395;BME280;5753;54.402;10.220;2022-10-26T14:39:40;101646.34;;;30.21;33.64
11395;BME280;5753;54.402;10.220;2022-10-26T14:42:30;101645.63;;;29.50;35.20
11395;BME280;5753;54.402;10.220;2022-10-26T14:44:57;101647.25;;;28.79;35.73
11395;BME280;5753;54.402;10.220;2022-10-26T14:47:27;101648.56;;;29.96;34.19
11395;BME280;5753;54.402;10.220;2022-10-26T14:49:53;101639.00;;;28.87;35.61
11395;BME280;5753;54.402;10.220;2022-10-26T14:52:34;101654.91;;;29.93;33.80
11395;BME280;5753;54.402;10.220;2022-10-26T14:55:13;101655.59;;;29.09;35.32
11395;BME280;5753;54.402;10.220;2022-10-26T14:57:42;101654.44;;;28.77;36.00
11395;BME280;5753;54.402;10.220;2022-10-26T15:02:43;101663.00;;;28.26;36.97
11395;BME280;5753;54.402;10.220;2022-10-26T15:05:26;101659.88;;;28.74;35.75
11395;BME280;5753;54.402;10.220;2022-10-26T15:07:54;101665.63;;;28.05;36.90
11395;BME280;5753;54.402;10.220;2022-10-26T15:15:35;101661.78;;;27.72;38.18
11395;BME280;5753;54.402;10.220;2022-10-26T15:18:02;101658.25;;;27.07;38.60
11395;BME280;5753;54.402;10.220;2022-10-26T15:20:29;101662.78;;;27.47;38.28
11395;BME280;5753;54.402;10.220;2022-10-26T15:23:01;101664.78;;;26.99;39.19
11395;BME280;5753;54.402;10.220;2022-10-26T15:25:30;101663.63;;;27.70;38.01
11395;BME280;5753;54.402;10.220;2022-10-26T15:28:10;101661.25;;;27.64;38.28
11395;BME280;5753;54.402;10.220;2022-10-26T15:31:06;101672.84;;;27.17;38.88
11395;BME280;5753;54.402;10.220;2022-10-26T15:33:33;101676.88;;;26.09;40.68
11395;BME280;5753;54.402;10.220;2022-10-26T15:36:14;101669.53;;;26.42;40.28
11395;BME280;5753;54.402;10.220;2022-10-26T15:38:42;101670.44;;;25.65;41.69
11395;BME280;5753;54.402;10.220;2022-10-26T15:41:21;101675.56;;;25.96;41.64
11395;BME280;5753;54.402;10.220;2022-10-26T15:43:49;101674.56;;;25.73;42.10
11395;BME280;5753;54.402;10.220;2022-10-26T15:46:16;101686.50;;;25.31;43.19
11395;BME280;5753;54.402;10.220;2022-10-26T15:48:42;101695.47;;;25.25;43.17
11395;BME280;5753;54.402;10.220;2022-10-26T15:51:13;101700.00;;;25.48;42.73
11395;BME280;5753;54.402;10.220;2022-10-26T15:53:39;101685.78;;;25.80;42.29